createdAt,value
2019-05-19T00:01:55.304Z,99519.49
2019-05-19T00:04:22.799Z,99537.22
2019-05-19T00:06:51.247Z,99536.05
2019-05-19T00:09:18.468Z,99540.03
2019-05-19T00:11:46.510Z,99531.28
2019-05-19T00:14:14.061Z,99522.02
2019-05-19T00:16:41.344Z,99530.48
2019-05-19T00:19:24.474Z,99527.02
2019-05-19T00:21:40.243Z,99525.01
2019-05-19T00:24:07.646Z,99523.38
2019-05-19T00:26:35.164Z,99520.38
2019-05-19T00:29:03.688Z,99521.87
2019-05-19T00:31:31.265Z,99513.59
2019-05-19T00:33:59.204Z,99508.45
2019-05-19T00:36:26.716Z,99504.97
2019-05-19T00:38:53.971Z,99495.52
2019-05-19T00:41:23.663Z,99499.17
2019-05-19T00:43:52.728Z,99499.01
2019-05-19T00:46:20.064Z,99495.68
2019-05-19T00:48:47.358Z,99489.38
2019-05-19T00:51:14.773Z,99487.21
2019-05-19T00:53:44.138Z,99484.21
2019-05-19T00:56:11.755Z,99467.34
2019-05-19T00:58:41.311Z,99473.28
2019-05-19T01:01:08.630Z,99465.98
2019-05-19T01:03:38.889Z,99471.45
2019-05-19T01:06:06.829Z,99458.44
2019-05-19T01:08:34.072Z,99449.03
2019-05-19T01:11:03.161Z,99448.06
2019-05-19T01:13:34.788Z,99441.95
2019-05-19T01:16:02.103Z,99441.80
2019-05-19T01:18:29.346Z,99446.26
2019-05-19T01:20:57.133Z,99446.13
2019-05-19T01:23:25.386Z,99447.81
2019-05-19T01:25:52.617Z,99446.48
2019-05-19T01:28:19.954Z,99441.18
2019-05-19T01:30:47.143Z,99443.54
2019-05-19T01:33:14.430Z,99447.51
2019-05-19T01:35:44.400Z,99445.02
2019-05-19T01:38:11.736Z,99449.51
2019-05-19T01:40:38.940Z,99451.47
2019-05-19T01:43:08.081Z,99453.98
2019-05-19T01:45:35.297Z,99450.33
2019-05-19T01:48:04.747Z,99451.81
2019-05-19T01:50:31.912Z,99455.47
2019-05-19T01:52:59.597Z,99459.44
2019-05-19T01:55:29.115Z,99453.66
2019-05-19T01:57:58.005Z,99457.11
2019-05-19T02:00:25.953Z,99453.83
2019-05-19T02:02:53.676Z,99446.03
2019-05-19T02:05:21.353Z,99440.89
2019-05-19T02:07:48.697Z,99436.92
2019-05-19T02:10:17.374Z,99434.78
2019-05-19T02:12:44.715Z,99445.88
2019-05-19T02:15:13.917Z,99438.58
2019-05-19T02:17:41.053Z,99434.12
2019-05-19T02:20:09.099Z,99442.39
2019-05-19T02:22:36.792Z,99442.88
2019-05-19T02:25:04.703Z,99444.52
2019-05-19T02:27:32.269Z,99447.52
2019-05-19T02:29:59.847Z,99452.67
2019-05-19T02:32:27.726Z,99460.78
2019-05-19T02:34:54.996Z,99457.80
2019-05-19T02:37:22.092Z,99462.58
2019-05-19T02:39:49.740Z,99450.48
2019-05-19T02:42:19.050Z,99453.00
2019-05-19T02:44:49.197Z,99450.34
2019-05-19T02:47:18.384Z,99452.67
2019-05-19T02:49:46.750Z,99451.51
2019-05-19T02:52:16.967Z,99453.66
2019-05-19T02:54:44.957Z,99451.83
2019-05-19T02:57:12.575Z,99453.66
2019-05-19T02:59:40.190Z,99449.52
2019-05-19T03:02:10.441Z,99444.56
2019-05-19T03:04:37.915Z,99452.66
2019-05-19T03:07:07.113Z,99455.83
2019-05-19T03:09:34.910Z,99462.45
2019-05-19T03:12:03.525Z,99458.31
2019-05-19T03:14:30.831Z,99462.61
2019-05-19T03:16:59.448Z,99461.95
2019-05-19T03:19:26.869Z,99465.77
2019-05-19T03:21:54.976Z,99466.73
2019-05-19T03:24:22.269Z,99464.09
2019-05-19T03:26:49.536Z,99463.77
2019-05-19T03:29:20.485Z,99462.44
2019-05-19T03:31:57.923Z,99460.47
2019-05-19T03:34:25.509Z,99459.81
2019-05-19T03:36:52.825Z,99456.48
2019-05-19T03:39:20.033Z,99468.09
2019-05-19T03:41:47.244Z,99470.58
2019-05-19T03:44:14.493Z,99469.08
2019-05-19T03:46:41.904Z,99471.56
2019-05-19T03:49:10.923Z,99477.34
2019-05-19T03:51:38.195Z,99477.84
2019-05-19T03:54:05.493Z,99471.38
2019-05-19T03:56:32.728Z,99469.72
2019-05-19T03:59:00.044Z,99472.70
2019-05-19T04:01:27.652Z,99474.02
2019-05-19T04:03:55.588Z,99472.55
2019-05-19T04:06:22.893Z,99467.71
2019-05-19T04:08:50.110Z,99469.20
2019-05-19T04:11:17.557Z,99467.56
2019-05-19T04:13:45.074Z,99462.27
2019-05-19T04:16:12.197Z,99461.27
2019-05-19T04:18:39.819Z,99469.06
2019-05-19T04:21:07.072Z,99468.38
2019-05-19T04:23:34.346Z,99470.20
2019-05-19T04:26:01.561Z,99479.64
2019-05-19T04:28:28.901Z,99489.19
2019-05-19T04:30:56.361Z,99494.01
2019-05-19T04:33:24.678Z,99482.11
2019-05-19T04:35:52.086Z,99489.24
2019-05-19T04:38:19.471Z,99488.41
2019-05-19T04:40:46.644Z,99487.73
2019-05-19T04:43:14.169Z,99494.17
2019-05-19T04:45:41.508Z,99496.14
2019-05-19T04:48:09.758Z,99500.13
2019-05-19T04:50:37.127Z,99492.33
2019-05-19T04:53:04.453Z,99508.56
2019-05-19T04:55:31.962Z,99511.31
2019-05-19T04:57:59.130Z,99511.16
2019-05-19T05:00:27.895Z,99513.64
2019-05-19T05:02:55.087Z,99513.45
2019-05-19T05:05:23.500Z,99518.55
2019-05-19T05:07:50.870Z,99518.20
2019-05-19T05:10:18.116Z,99510.55
2019-05-19T05:12:45.848Z,99508.18
2019-05-19T05:15:13.834Z,99514.40
2019-05-19T05:17:46.264Z,99505.83
2019-05-19T05:20:18.859Z,99509.21
2019-05-19T05:22:49.448Z,99501.78
2019-05-19T05:25:18.520Z,99500.78
2019-05-19T05:27:45.864Z,99502.08
2019-05-19T05:30:15.855Z,99497.55
2019-05-19T05:32:43.192Z,99499.89
2019-05-19T05:35:10.588Z,99503.12
2019-05-19T05:37:37.828Z,99511.27
2019-05-19T05:40:05.560Z,99503.91
2019-05-19T05:42:32.918Z,99495.88
2019-05-19T05:45:00.040Z,99491.88
2019-05-19T05:47:27.330Z,99489.97
2019-05-19T05:49:54.818Z,99489.15
2019-05-19T05:52:36.054Z,99495.35
2019-05-19T05:54:51.539Z,99498.74
2019-05-19T05:57:19.625Z,99501.41
2019-05-19T05:59:46.862Z,99491.55
2019-05-19T06:02:14.297Z,99493.19
2019-05-19T06:04:41.807Z,99494.73
2019-05-19T06:07:09.067Z,99496.69
2019-05-19T06:09:36.571Z,99499.25
2019-05-19T06:12:04.101Z,99494.52
2019-05-19T06:14:31.402Z,99489.98
2019-05-19T06:16:58.988Z,99494.58
2019-05-19T06:19:26.200Z,99488.86
2019-05-19T06:21:54.007Z,99493.64
2019-05-19T06:24:21.289Z,99488.81
2019-05-19T06:26:48.763Z,99488.34
2019-05-19T06:29:16.105Z,99488.53
2019-05-19T06:31:43.334Z,99491.17
2019-05-19T06:34:11.027Z,99492.78
2019-05-19T06:36:38.597Z,99487.26
2019-05-19T06:39:06.269Z,99486.02
2019-05-19T06:41:33.769Z,99485.61
2019-05-19T06:44:03.365Z,99492.47
2019-05-19T06:46:30.903Z,99484.88
2019-05-19T06:48:59.284Z,99485.72
2019-05-19T06:51:26.766Z,99476.22
2019-05-19T06:53:54.075Z,99488.58
2019-05-19T06:56:21.377Z,99478.79
2019-05-19T06:58:48.659Z,99485.11
2019-05-19T07:01:17.070Z,99482.78
2019-05-19T07:03:44.355Z,99493.98
2019-05-19T07:06:11.675Z,99492.97
2019-05-19T07:08:39.028Z,99497.16
2019-05-19T07:11:06.613Z,99496.42
2019-05-19T07:13:33.840Z,99485.86
2019-05-19T07:16:01.189Z,99488.98
2019-05-19T07:18:28.563Z,99487.02
2019-05-19T07:20:57.562Z,99484.69
2019-05-19T07:23:28.256Z,99486.08
2019-05-19T07:25:53.931Z,99481.02
2019-05-19T07:28:21.205Z,99489.33
2019-05-19T07:30:48.861Z,99486.86
2019-05-19T07:33:16.434Z,99483.32
2019-05-19T07:35:44.418Z,99484.56
2019-05-19T07:38:12.002Z,99485.08
2019-05-19T07:40:39.561Z,99478.49
2019-05-19T07:43:07.142Z,99484.50
2019-05-19T07:45:34.406Z,99477.09
2019-05-19T07:48:01.564Z,99473.05
2019-05-19T07:50:29.045Z,99480.41
2019-05-19T07:52:57.040Z,99476.52
2019-05-19T07:55:24.172Z,99471.66
2019-05-19T07:57:51.478Z,99477.09
2019-05-19T08:00:18.640Z,99474.36
2019-05-19T08:02:46.244Z,99477.98
2019-05-19T08:05:13.534Z,99479.23
2019-05-19T08:07:41.733Z,99483.36
2019-05-19T08:10:09.212Z,99481.45
2019-05-19T08:12:38.852Z,99478.75
2019-05-19T08:15:07.515Z,99473.28
2019-05-19T08:17:34.923Z,99475.89
2019-05-19T08:20:03.241Z,99476.89
2019-05-19T08:22:30.558Z,99466.52
2019-05-19T08:24:58.163Z,99477.81
2019-05-19T08:27:25.736Z,99468.55
2019-05-19T08:29:53.337Z,99476.30
2019-05-19T08:32:20.513Z,99478.60
2019-05-19T08:34:47.746Z,99481.90
2019-05-19T08:37:15.231Z,99477.50
2019-05-19T08:39:42.562Z,99476.67
2019-05-19T08:42:09.810Z,99472.33
2019-05-19T08:44:37.808Z,99470.38
2019-05-19T08:47:04.922Z,99467.91
2019-05-19T08:49:32.341Z,99467.13
2019-05-19T08:52:00.697Z,99461.54
2019-05-19T08:54:29.179Z,99460.59
2019-05-19T08:56:56.675Z,99461.09
2019-05-19T08:59:24.079Z,99456.97
2019-05-19T09:01:52.202Z,99455.03
2019-05-19T09:04:19.513Z,99448.14
2019-05-19T09:06:47.050Z,99444.91
2019-05-19T09:09:14.337Z,99442.20
2019-05-19T09:11:41.899Z,99433.25
2019-05-19T09:14:09.383Z,99432.38
2019-05-19T09:16:36.684Z,99431.98
2019-05-19T09:19:04.148Z,99429.59
2019-05-19T09:21:31.485Z,99416.35
2019-05-19T09:23:58.720Z,99423.77
2019-05-19T09:26:26.005Z,99427.79
2019-05-19T09:28:53.185Z,99420.20
2019-05-19T09:31:20.494Z,99420.59
2019-05-19T09:33:48.336Z,99416.98
2019-05-19T09:36:15.565Z,99408.39
2019-05-19T09:38:43.094Z,99410.98
2019-05-19T09:41:11.303Z,99406.96
2019-05-19T09:43:38.571Z,99408.19
2019-05-19T09:46:05.868Z,99405.06
2019-05-19T09:48:33.246Z,99400.52
2019-05-19T09:51:01.120Z,99392.78
2019-05-19T09:53:28.828Z,99402.34
2019-05-19T09:55:56.145Z,99388.74
2019-05-19T09:58:23.397Z,99386.94
2019-05-19T10:00:50.872Z,99390.32
2019-05-19T10:03:19.790Z,99388.88
2019-05-19T10:05:47.132Z,99385.03
2019-05-19T10:08:14.842Z,99384.56
2019-05-19T10:11:39.309Z,99386.63
2019-05-19T10:14:09.732Z,99379.52
2019-05-19T10:16:37.128Z,99372.56
2019-05-19T10:19:04.869Z,99379.09
2019-05-19T10:21:32.337Z,99374.69
2019-05-19T10:23:59.549Z,99371.62
2019-05-19T10:26:27.461Z,99376.97
2019-05-19T10:28:55.051Z,99376.13
2019-05-19T10:31:23.552Z,99369.08
2019-05-19T10:33:51.030Z,99377.03
2019-05-19T10:36:18.306Z,99370.86
2019-05-19T10:38:45.521Z,99373.32
2019-05-19T10:41:12.943Z,99367.64
2019-05-19T10:43:40.656Z,99367.42
2019-05-19T10:46:08.360Z,99364.71
2019-05-19T10:48:38.348Z,99361.16
2019-05-19T10:51:06.464Z,99364.14
2019-05-19T10:53:34.449Z,99365.50
2019-05-19T10:56:01.704Z,99362.78
2019-05-19T10:58:30.741Z,99360.59
2019-05-19T11:00:58.340Z,99366.29
2019-05-19T11:03:27.159Z,99352.12
2019-05-19T11:05:54.782Z,99353.44
2019-05-19T11:08:22.389Z,99353.22
2019-05-19T11:10:49.898Z,99353.27
2019-05-19T11:13:18.662Z,99351.64
2019-05-19T11:15:46.693Z,99340.51
2019-05-19T11:18:16.885Z,99342.95
2019-05-19T11:20:44.001Z,99341.88
2019-05-19T11:23:11.720Z,99338.06
2019-05-19T11:25:51.006Z,99336.44
2019-05-19T11:28:08.592Z,99328.30
2019-05-19T11:30:35.938Z,99328.56
2019-05-19T11:33:03.114Z,99329.92
2019-05-19T11:35:30.425Z,99326.14
2019-05-19T11:37:58.117Z,99320.14
2019-05-19T11:40:25.411Z,99316.37
2019-05-19T11:42:53.035Z,99321.80
2019-05-19T11:45:20.696Z,99315.52
2019-05-19T11:47:47.908Z,99311.95
2019-05-19T11:50:15.161Z,99310.86
2019-05-19T11:52:42.719Z,99312.47
2019-05-19T11:55:12.378Z,99315.39
2019-05-19T11:57:42.607Z,99315.63
2019-05-19T12:00:10.429Z,99313.39
2019-05-19T12:02:38.076Z,99319.22
2019-05-19T12:05:05.378Z,99317.34
2019-05-19T12:07:32.966Z,99311.38
2019-05-19T12:10:00.723Z,99314.61
2019-05-19T12:12:28.628Z,99313.24
2019-05-19T12:14:56.431Z,99309.14
2019-05-19T12:17:24.155Z,99311.25
2019-05-19T12:19:52.627Z,99309.28
2019-05-19T12:22:19.986Z,99305.95
2019-05-19T12:24:47.641Z,99304.59
2019-05-19T12:27:15.184Z,99297.36
2019-05-19T12:29:42.604Z,99298.36
2019-05-19T12:32:10.372Z,99294.30
2019-05-19T12:34:38.103Z,99301.09
2019-05-19T12:37:05.380Z,99296.46
2019-05-19T12:39:33.848Z,99292.63
2019-05-19T12:42:01.320Z,99292.09
2019-05-19T12:44:29.276Z,99289.86
2019-05-19T12:46:56.886Z,99285.59
2019-05-19T12:49:24.297Z,99286.73
2019-05-19T12:51:51.881Z,99283.57
2019-05-19T12:54:19.194Z,99287.59
2019-05-19T12:56:46.478Z,99281.44
2019-05-19T12:59:13.806Z,99284.95
2019-05-19T13:01:44.545Z,99276.88
2019-05-19T13:04:11.864Z,99276.87
2019-05-19T13:06:39.195Z,99273.30
2019-05-19T13:09:07.574Z,99282.97
2019-05-19T13:11:35.408Z,99278.67
2019-05-19T13:14:02.699Z,99272.61
2019-05-19T13:16:29.984Z,99279.95
2019-05-19T13:18:58.363Z,99278.95
2019-05-19T13:21:26.039Z,99275.87
2019-05-19T13:23:56.447Z,99271.16
2019-05-19T13:26:26.724Z,99275.55
2019-05-19T13:28:54.043Z,99271.56
2019-05-19T13:31:21.312Z,99272.17
2019-05-19T13:33:48.871Z,99273.03
2019-05-19T13:36:16.094Z,99264.25
2019-05-19T13:38:43.589Z,99264.30
2019-05-19T13:41:10.856Z,99259.94
2019-05-19T13:43:38.137Z,99258.89
2019-05-19T13:46:05.852Z,99259.58
2019-05-19T13:48:33.123Z,99258.98
2019-05-19T13:51:00.353Z,99244.33
2019-05-19T13:53:27.869Z,99242.85
2019-05-19T13:55:55.885Z,99245.26
2019-05-19T13:58:23.960Z,99238.90
2019-05-19T14:00:51.245Z,99242.31
2019-05-19T14:03:18.434Z,99237.98
2019-05-19T14:05:45.651Z,99240.13
2019-05-19T14:08:12.997Z,99242.65
2019-05-19T14:10:40.336Z,99245.06
2019-05-19T14:13:07.634Z,99238.81
2019-05-19T14:15:34.926Z,99234.42
2019-05-19T14:18:02.124Z,99231.36
2019-05-19T14:20:29.329Z,99236.53
2019-05-19T14:22:56.893Z,99240.36
2019-05-19T14:25:24.517Z,99233.64
2019-05-19T14:27:51.738Z,99232.09
2019-05-19T14:30:19.336Z,99229.41
2019-05-19T14:32:46.475Z,99229.34
2019-05-19T14:35:13.868Z,99226.77
2019-05-19T14:37:41.162Z,99214.39
2019-05-19T14:40:08.830Z,99214.41
2019-05-19T14:42:53.230Z,99219.59
2019-05-19T14:45:21.313Z,99217.98
2019-05-19T14:47:48.459Z,99222.90
2019-05-19T14:50:16.050Z,99216.37
2019-05-19T14:52:44.227Z,99214.78
2019-05-19T14:55:12.247Z,99207.75
2019-05-19T14:57:45.010Z,99209.65
2019-05-19T15:00:09.952Z,99206.92
2019-05-19T15:02:37.280Z,99200.13
2019-05-19T15:05:05.353Z,99195.49
2019-05-19T15:07:32.633Z,99193.86
2019-05-19T15:09:59.913Z,99187.38
2019-05-19T15:12:28.043Z,99189.83
2019-05-19T15:14:58.181Z,99187.11
2019-05-19T15:17:25.837Z,99182.19
2019-05-19T15:19:53.200Z,99175.39
2019-05-19T15:22:20.672Z,99183.57
2019-05-19T15:24:48.922Z,99180.31
2019-05-19T15:27:16.290Z,99175.73
2019-05-19T15:29:43.825Z,99182.48
2019-05-19T15:32:11.109Z,99209.37
2019-05-19T15:34:38.315Z,99193.14
2019-05-19T15:37:08.534Z,99189.86
2019-05-19T15:39:35.779Z,99201.32
2019-05-19T15:42:03.166Z,99189.62
2019-05-19T15:44:30.712Z,99190.26
2019-05-19T15:46:58.164Z,99194.88
2019-05-19T15:49:25.873Z,99198.19
2019-05-19T15:52:02.501Z,99209.44
2019-05-19T15:54:22.751Z,99211.41
2019-05-19T15:56:50.504Z,99217.62
2019-05-19T15:59:18.124Z,99218.24
2019-05-19T16:01:45.375Z,99223.21
2019-05-19T16:04:13.435Z,99224.00
2019-05-19T16:06:41.601Z,99228.30
2019-05-19T16:09:08.968Z,99231.31
2019-05-19T16:11:36.502Z,99232.56
2019-05-19T16:14:05.458Z,99231.63
2019-05-19T16:16:32.986Z,99233.55
2019-05-19T16:19:00.312Z,99238.92
2019-05-19T16:21:27.868Z,99244.69
2019-05-19T16:23:55.155Z,99250.95
2019-05-19T16:26:22.626Z,99259.39
2019-05-19T16:28:50.173Z,99262.62
2019-05-19T16:31:17.815Z,99271.02
2019-05-19T16:33:45.175Z,99278.62
2019-05-19T16:36:12.565Z,99282.14
2019-05-19T16:38:39.847Z,99286.78
2019-05-19T16:41:07.488Z,99293.75
2019-05-19T16:43:34.818Z,99297.16
2019-05-19T16:46:02.252Z,99296.39
2019-05-19T16:48:30.567Z,99297.31
2019-05-19T16:50:57.826Z,99290.38
2019-05-19T16:53:25.155Z,99295.23
2019-05-19T16:55:53.431Z,99296.81
2019-05-19T16:58:21.776Z,99297.09
2019-05-19T17:00:49.225Z,99295.06
2019-05-19T17:03:16.791Z,99292.98
2019-05-19T17:05:44.055Z,99294.52
2019-05-19T17:08:12.247Z,99298.97
2019-05-19T17:10:39.818Z,99309.27
2019-05-19T17:13:07.185Z,99304.45
2019-05-19T17:15:35.455Z,99308.47
2019-05-19T17:18:03.792Z,99314.77
2019-05-19T17:20:31.286Z,99310.88
2019-05-19T17:22:58.493Z,99313.83
2019-05-19T17:25:25.997Z,99316.71
2019-05-19T17:27:53.258Z,99318.15
2019-05-19T17:30:21.034Z,99318.44
2019-05-19T17:32:48.775Z,99316.85
2019-05-19T17:35:16.210Z,99312.74
2019-05-19T17:37:44.086Z,99318.89
2019-05-19T17:40:14.444Z,99315.49
2019-05-19T17:42:41.689Z,99311.48
2019-05-19T17:45:09.942Z,99310.04
2019-05-19T17:47:37.832Z,99312.32
2019-05-19T17:50:06.105Z,99310.98
2019-05-19T17:52:34.280Z,99312.21
2019-05-19T17:55:02.016Z,99312.06
2019-05-19T17:57:31.693Z,99319.11
2019-05-19T18:00:00.750Z,99314.48
2019-05-19T18:02:28.404Z,99319.44
2019-05-19T18:04:56.056Z,99321.02
2019-05-19T18:07:23.829Z,99322.53
2019-05-19T18:09:51.649Z,99314.28
2019-05-19T18:12:19.040Z,99316.77
2019-05-19T18:14:46.525Z,99308.95
2019-05-19T18:17:13.979Z,99310.48
2019-05-19T18:19:41.656Z,99304.52
2019-05-19T18:22:09.239Z,99298.70
2019-05-19T18:24:36.539Z,99299.81
2019-05-19T18:27:03.944Z,99297.67
2019-05-19T18:29:32.179Z,99294.73
2019-05-19T18:31:59.786Z,99292.63
2019-05-19T18:34:27.638Z,99284.30
2019-05-19T18:36:54.928Z,99290.38
2019-05-19T18:39:22.648Z,99290.27
2019-05-19T18:41:49.792Z,99287.86
2019-05-19T18:44:17.024Z,99288.81
2019-05-19T18:46:44.374Z,99290.14
2019-05-19T18:49:11.772Z,99294.66
2019-05-19T18:51:43.066Z,99291.03
2019-05-19T18:54:14.409Z,99292.27
2019-05-19T18:56:41.902Z,99291.27
2019-05-19T18:59:12.493Z,99293.59
2019-05-19T19:01:58.098Z,99295.15
2019-05-19T19:04:26.715Z,99293.27
2019-05-19T19:06:57.308Z,99293.42
2019-05-19T19:09:25.858Z,99290.23
2019-05-19T19:11:54.044Z,99291.42
2019-05-19T19:14:27.517Z,99296.84
2019-05-19T19:16:54.083Z,99295.77
2019-05-19T19:19:26.727Z,99295.02
2019-05-19T19:21:57.500Z,99302.58
2019-05-19T19:24:24.815Z,99298.67
2019-05-19T19:26:52.818Z,99303.44
2019-05-19T19:29:20.770Z,99314.68
2019-05-19T19:31:49.008Z,99313.34
2019-05-19T19:34:16.358Z,99308.83
2019-05-19T19:36:43.630Z,99307.00
2019-05-19T19:39:10.914Z,99312.69
2019-05-19T19:41:38.478Z,99319.94
2019-05-19T19:44:05.949Z,99321.38
2019-05-19T19:46:34.980Z,99326.13
2019-05-19T19:49:02.356Z,99326.71
2019-05-19T19:51:29.814Z,99330.39
2019-05-19T19:53:57.095Z,99334.83
2019-05-19T19:56:24.536Z,99333.77
2019-05-19T19:58:55.365Z,99343.08
2019-05-19T20:01:23.053Z,99342.33
2019-05-19T20:03:51.892Z,99346.05
2019-05-19T20:06:19.287Z,99347.83
2019-05-19T20:08:46.539Z,99353.58
2019-05-19T20:11:13.942Z,99347.67
2019-05-19T20:13:42.079Z,99353.92
2019-05-19T20:16:09.573Z,99352.60
2019-05-19T20:18:36.991Z,99354.89
2019-05-19T20:21:04.836Z,99361.02
2019-05-19T20:23:32.441Z,99355.06
2019-05-19T20:26:00.043Z,99361.47
2019-05-19T20:28:27.483Z,99360.06
2019-05-19T20:30:54.747Z,99360.80
2019-05-19T20:33:22.049Z,99358.42
2019-05-19T20:35:49.205Z,99364.81
2019-05-19T20:38:16.505Z,99364.98
2019-05-19T20:40:43.788Z,99359.36
2019-05-19T20:43:11.323Z,99361.17
2019-05-19T20:45:39.657Z,99361.49
2019-05-19T20:48:07.755Z,99360.16
2019-05-19T20:50:34.955Z,99361.70
2019-05-19T20:53:02.277Z,99367.79
2019-05-19T20:55:29.583Z,99370.52
2019-05-19T20:57:57.209Z,99371.86
2019-05-19T21:00:25.021Z,99377.55
2019-05-19T21:02:52.375Z,99381.33
2019-05-19T21:05:22.416Z,99381.71
2019-05-19T21:07:50.150Z,99386.44
2019-05-19T21:10:17.798Z,99390.33
2019-05-19T21:12:45.373Z,99388.48
2019-05-19T21:15:12.574Z,99393.50
2019-05-19T21:17:40.005Z,99392.14
2019-05-19T21:20:08.475Z,99399.42
2019-05-19T21:22:35.800Z,99397.66
2019-05-19T21:25:03.586Z,99398.01
2019-05-19T21:27:33.623Z,99397.25
2019-05-19T21:30:00.972Z,99387.83
2019-05-19T21:32:28.579Z,99388.92
2019-05-19T21:34:56.607Z,99390.00
2019-05-19T21:37:25.430Z,99388.89
2019-05-19T21:39:53.698Z,99388.30
2019-05-19T21:42:21.696Z,99390.81
2019-05-19T21:44:48.924Z,99385.72
2019-05-19T21:47:16.472Z,99384.95
2019-05-19T21:49:43.617Z,99381.81
2019-05-19T21:52:10.907Z,99392.17
2019-05-19T21:54:38.425Z,99389.69
2019-05-19T21:57:06.189Z,99390.37
2019-05-19T21:59:33.463Z,99386.89
2019-05-19T22:02:00.770Z,99383.27
2019-05-19T22:04:27.915Z,99387.94
2019-05-19T22:07:07.238Z,99387.78
2019-05-19T22:09:34.512Z,99391.23
2019-05-19T22:12:02.115Z,99380.13
2019-05-19T22:14:29.837Z,99389.58
2019-05-19T22:16:57.062Z,99388.10
2019-05-19T22:19:24.420Z,99388.16
2019-05-19T22:21:52.416Z,99394.19
2019-05-19T22:24:20.048Z,99390.38
2019-05-19T22:26:47.302Z,99386.24
2019-05-19T22:29:14.840Z,99382.15
2019-05-19T22:31:42.018Z,99380.19
2019-05-19T22:34:09.340Z,99381.87
2019-05-19T22:36:38.427Z,99390.02
2019-05-19T22:39:05.872Z,99392.51
2019-05-19T22:41:36.972Z,99389.24
2019-05-19T22:44:07.236Z,99392.38
2019-05-19T22:46:35.557Z,99386.45
2019-05-19T22:49:03.255Z,99392.27
2019-05-19T22:51:30.610Z,99385.32
2019-05-19T22:53:58.386Z,99384.48
2019-05-19T22:56:25.831Z,99376.34
2019-05-19T22:58:54.032Z,99382.31
2019-05-19T23:01:21.287Z,99376.89
2019-05-19T23:03:48.511Z,99377.23
2019-05-19T23:06:18.078Z,99375.41
2019-05-19T23:08:45.514Z,99378.89
2019-05-19T23:11:13.454Z,99376.92
2019-05-19T23:13:40.742Z,99376.58
2019-05-19T23:16:08.516Z,99377.08
2019-05-19T23:18:35.718Z,99380.42
2019-05-19T23:21:02.845Z,99379.77
2019-05-19T23:23:30.430Z,99385.55
2019-05-19T23:25:57.775Z,99379.75
2019-05-19T23:28:25.077Z,99382.55
2019-05-19T23:30:52.746Z,99379.27
2019-05-19T23:33:21.601Z,99376.63
2019-05-19T23:35:48.913Z,99380.91
2019-05-19T23:38:16.114Z,99373.16
2019-05-19T23:40:43.547Z,99378.44
2019-05-19T23:43:11.022Z,99392.28
2019-05-19T23:45:38.605Z,99391.45
2019-05-19T23:48:05.904Z,99391.86
2019-05-19T23:50:33.410Z,99395.03
2019-05-19T23:53:00.658Z,99398.36
2019-05-19T23:55:27.860Z,99399.52
2019-05-19T23:57:55.907Z,99394.70
